Tiempo atmosférico en la estación meteorológica de Cabo de Gata, Almería (42 m.)



Fecha
DESCASC
Temp. máxima en grados centígrados (hora)
DESCASC
Temp. mínima en grados centígrados (hora)
DESCASC
Temp. media en grados centígrados
DESCASC
Racha de viento máxima en m/sg (hora)
DESCASC
Velocidad máxima media en intervalos de 10 minutos(hora)
DESCASC
Precipitaciones diarias en mm
DESCASC
Precipitaciones de 00:00 a 06:00 en mm
DESCASC
Precipitaciones de 06:00 a 12:00 en mm
DESCASC
Precipitaciones de 12:00 a 18:00 en mm
DESCASC
Precipitaciones de 18:00 a 24:00 en mm
DESCASC
23-05-2018 25.9 (14:40) 17.4 (07:30) 21.6 22.78 (21:30) 14.17 (19:20) 0 0 0 0 0
22-05-2018 23.8 (16:30) 18.2 (06:10) 21 9.17 (04:40) 6.39 (03:30) 0 0 0 0 0
21-05-2018 23.5 (16:10) 16.7 (07:00) 20.1 7.22 (19:10) 4.44 (22:30) 0 0 0 0 0
20-05-2018 23.2 (13:50) 16.6 (00:00) 19.9 5.28 (22:50) 3.33 (22:20) 0 0 0 0 0
19-05-2018 19.9 (12:20) 16.5 (00:00) 18.2 14.44 (11:40) 11.11 (13:00) 0 0 0 0 0
18-05-2018 19.5 (10:40) 15.8 (00:00) 17.7 14.72 (13:30) 10.83 (12:10) 0 0 0 0 0
17-05-2018 20 (00:00) 17.1 (00:00) 18.6 20 (07:20) 11.67 (04:50) 0 0 0 0 0
16-05-2018 21.8 (13:40) 17 (00:00) 19.4 24.17 (17:50) 15.56 (17:30) 0 0 0 0 0
15-05-2018 20.5 (15:10) 16.2 (00:00) 18.4 16.94 (13:00) 11.94 (12:50) 0 0 0 0 0
14-05-2018 22.1 (14:00) 15 (00:00) 18.6 6.11 (11:10) 4.17 (12:50) 0 0 0 0 0
13-05-2018 21 (12:30) 16.6 (00:00) 18.8 14.72 (13:00) 10.56 (14:10) 0 0 0 0 0
12-05-2018 21 (14:10) 16.9 (00:00) 18.9 13.61 (19:50) 9.72 (20:10) 0 0 0 0 0
11-05-2018 20.6 (10:40) 17.7 (06:10) 19.2 12.5 (13:20) 10.28 (13:30) 0 0 0 0 0
10-05-2018 21.9 (14:50) 17.4 (00:00) 19.6 12.22 (19:10) 7.5 (19:10) 0 0 0 0 0
09-05-2018 22.8 (13:50) 17 (00:00) 19.9 13.06 (21:30) 6.67 (18:30) 0 0 0 0 0
08-05-2018 21.6 (16:10) 16.6 (00:00) 19.1 7.22 (03:00) 5 (02:50) 0 0 0 0 0
07-05-2018 23.1 (15:10) 17.2 (00:00) 20.2 20.56 (17:10) 14.44 (17:10) 0 0 0 0 0
06-05-2018 20.1 (17:30) 16.7 (00:00) 18.4 19.17 (12:50) 10 (12:50) 0 0 0 0 0
05-05-2018 20.1 (14:40) 15.8 (00:00) 18 10.28 (02:30) 7.22 (02:30) 0 0 0 0 0
04-05-2018 19.9 (15:00) 15.4 (00:00) 17.6 10.28 (19:10) 8.61 (19:30) 0.8 0 0.8 0 0
03-05-2018 21.4 (14:20) 14.8 (00:00) 18.1 8.61 (15:30) 5.83 (09:20) 0 0 0 0 0
02-05-2018 20 (15:50) 12.3 (00:00) 16.2 11.94 (08:50) 7.78 (08:50) 0 0 0 0 0
01-05-2018 18.6 (14:20) 12.1 (19:10) 15.4 17.5 (18:00) 9.72 (18:00) 0.4 0 0 0 0.4
30-04-2018 18.6 (13:10) 14.2 (00:00) 16.4 12.78 (21:30) 9.17 (21:30) 0 0 0 0 0
29-04-2018 17.1 (15:20) 14.7 (00:00) 15.9 25 (03:20) 18.06 (03:20) 0 0 0 0 0
28-04-2018 20.8 (13:50) 16.2 (00:00) 18.5 15.83 (23:50) 9.72 (22:30) 0 0 0 0 0
27-04-2018 21.1 (15:10) 15.9 (00:00) 18.5 9.44 (18:20) 6.39 (05:00) 0 0 0 0 0
26-04-2018 18.6 (13:10) 15.9 (00:00) 17.3 14.44 (15:30) 8.33 (15:20) 0 0 0 0 0
25-04-2018 21.5 (00:50) 15.8 (00:00) 18.7 23.33 (09:40) 14.44 (00:20) 5.2 0.4 4.6 0.2 0
24-04-2018 24.3 (03:40) 19.2 (00:00) 21.8 28.33 (13:20) 20 (16:50) 0 0 0 0 0

Gráficas

Temp. máximas Temp. mínimas Temp. medias Precipitaciones Rachas de viento máximas Velocidades máximas media en intervalos de 10 minutos

Datos horarios

Fecha y hora oficial Temperatura (ºC) Velocidad del viento (km/h) Dirección del viento Racha (km/h) Dirección de racha Precipitación (mm) Presión (hPa) Tendencia (hPa) Humedad (%)
2018-05-23 23:00:00 23.2 46 Nordeste 79 Este 0 -- -- 35
2018-05-23 22:00:00 23.1 46 Nordeste 82 Nordeste 0 -- -- 35
2018-05-23 21:00:00 23.6 51 Nordeste 72 Nordeste 0 -- -- 31
2018-05-23 20:00:00 24.1 47 Nordeste 76 Nordeste 0 -- -- 30
2018-05-23 19:00:00 24.7 45 Nordeste 69 Nordeste 0 -- -- 30
2018-05-23 18:00:00 24.8 47 Nordeste 72 Nordeste 0 -- -- 31
2018-05-23 17:00:00 25.1 38 Nordeste 66 Este 0 -- -- 30
2018-05-23 16:00:00 25.5 33 Este 56 Este 0 -- -- 34
2018-05-23 15:00:00 25.9 37 Este 55 Este 0 -- -- 32
2018-05-23 14:00:00 25.2 31 Este 50 Este 0 -- -- 36
2018-05-23 13:00:00 24.8 28 Este 50 Nordeste 0 -- -- 38
2018-05-23 12:00:00 24.3 35 Nordeste 46 Este 0 -- -- 39
2018-05-23 11:00:00 23.7 26 Nordeste 42 Nordeste 0 -- -- 48
2018-05-23 10:00:00 22.2 9 Este 23 Sudeste 0 -- -- 61
2018-05-23 09:00:00 20.9 6 Este 11 Sudeste 0 -- -- 68
2018-05-23 08:00:00 18.6 4 Este 11 Oeste 0 -- -- 71
2018-05-23 07:00:00 18.1 4 Noroeste 8 Noroeste 0 -- -- 76
2018-05-23 06:00:00 18.6 6 Noroeste 12 Nordeste 0 -- -- 75
2018-05-23 05:00:00 18.2 2 Este 8 Este 0 -- -- 75
2018-05-23 04:00:00 17.9 3 Este 8 Oeste 0 -- -- 76
2018-05-23 03:00:00 17.7 4 Noroeste 17 Este 0 -- -- 79
2018-05-23 02:00:00 19.5 15 Este 21 Este 0 -- -- 78
2018-05-23 01:00:00 19.7 13 Este 25 Sudeste 0 -- -- 74
2018-05-23 00:00:00 20.2 8 Este 14 Este 0 -- -- 57
2018-05-22 23:00:00 20.2 8 Norte 19 Noroeste 0 -- -- 59
2018-05-22 22:00:00 20.1 13 Noroeste 18 Noroeste 0 -- -- 72
2018-05-22 21:00:00 21.2 6 Oeste 12 Noroeste 0 -- -- 74
2018-05-22 20:00:00 21.8 4 Oeste 9 Oeste 0 -- -- 73
2018-05-22 19:00:00 21.7 3 Oeste 9 Sudoeste 0 -- -- 72
2018-05-22 18:00:00 22.4 5 Oeste 10 Noroeste 0 -- -- 67
2018-05-22 17:00:00 23.2 6 Oeste 14 Oeste 0 -- -- 66
2018-05-22 16:00:00 23.7 8 Oeste 18 Oeste 0 -- -- 69
2018-05-22 15:00:00 23.6 8 Oeste 15 Oeste 0 -- -- 70
2018-05-22 14:00:00 23.1 6 Oeste 13 Sudoeste 0 -- -- 71
2018-05-22 13:00:00 22.9 5 Sudoeste 11 Oeste 0 -- -- 73
2018-05-22 12:00:00 22.5 6 Oeste 14 Oeste 0 -- -- 76
2018-05-22 11:00:00 21.7 7 Oeste 14 Oeste 0 -- -- 81
2018-05-22 10:00:00 19.8 8 Oeste 14 Oeste 0 -- -- 85
2018-05-22 09:00:00 18.8 8 Oeste 14 Oeste 0 -- -- 86
2018-05-22 08:00:00 18.3 6 Oeste 17 Oeste 0 -- -- 86
2018-05-22 07:00:00 18.2 9 Oeste 16 Noroeste 0 -- -- 86
2018-05-22 06:00:00 18.3 9 Oeste 23 Oeste 0 -- -- 86
2018-05-22 05:00:00 18.3 21 Oeste 33 Oeste 0 -- -- 85
2018-05-22 04:00:00 18.3 22 Oeste 30 Oeste 0 -- -- 85
2018-05-22 03:00:00 18.5 14 Oeste 23 Oeste 0 -- -- 84
2018-05-22 02:00:00 18.8 18 Oeste 24 Oeste 0 -- -- 83
2018-05-22 01:00:00 18.9 13 Oeste 20 Oeste 0 -- -- 82
2018-05-22 00:00:00 19.2 9 Oeste 17 Oeste 0 -- -- 80
2018-05-21 23:00:00 19.5 13 Oeste 20 Oeste 0 -- -- 78
2018-05-21 22:00:00 19.6 8 Oeste 21 Oeste 0 -- -- 76
2018-05-21 21:00:00 20.1 11 Oeste 23 Oeste 0 -- -- 75
2018-05-21 20:00:00 20.5 12 Oeste 26 Oeste 0 -- -- 73
2018-05-21 19:00:00 21 12 Oeste 23 Sudoeste 0 -- -- 71
2018-05-21 18:00:00 21.4 5 Oeste 13 Oeste 0 -- -- 70
2018-05-21 17:00:00 22.1 5 Oeste 21 Oeste 0 -- -- 67
2018-05-21 16:00:00 23.4 5 Oeste 14 Oeste 0 -- -- 64
2018-05-21 15:00:00 23.2 4 Oeste 13 Oeste 0 -- -- 65
2018-05-21 14:00:00 22.6 5 Sudoeste 12 Sudoeste 0 -- -- 66
2018-05-21 13:00:00 22.9 5 Sudoeste 10 Sudoeste 0 -- -- 66
2018-05-21 12:00:00 22.5 5 Oeste 10 Oeste 0 -- -- 69
2018-05-21 11:00:00 21.6 3 Sudoeste 10 Oeste 0 -- -- 73
2018-05-21 10:00:00 20.9 5 Noroeste 8 Noroeste 0 -- -- 79
2018-05-21 09:00:00 18.5 5 Noroeste 8 Noroeste 0 -- -- 82
2018-05-21 08:00:00 17.5 3 Norte 9 Norte 0 -- -- 83
2018-05-21 07:00:00 16.7 5 Noroeste 10 Norte 0 -- -- 81
2018-05-21 06:00:00 17.2 4 Noroeste 6 Norte 0 -- -- 78
2018-05-21 05:00:00 17.4 3 Norte 6 Norte 0 -- -- 76
2018-05-21 04:00:00 17.7 2 Sudeste 10 Este 0 -- -- 74
2018-05-21 03:00:00 17.7 4 Este 8 Este 0 -- -- 73
2018-05-21 02:00:00 18 3 Este 10 Este 0 -- -- 73
2018-05-21 01:00:00 17.8 2 Nordeste 4 Nordeste 0 -- -- 71
2018-05-21 00:00:00 18.3 0 Calma 13 Norte 0 -- -- 71
2018-05-20 23:00:00 18.6 10 Noroeste 19 Oeste 0 -- -- 73
2018-05-20 22:00:00 19.3 7 Oeste 13 Noroeste 0 -- -- 72
2018-05-20 21:00:00 19.8 6 Oeste 9 Oeste 0 -- -- 72
2018-05-20 20:00:00 19.8 4 Oeste 9 Oeste 0 -- -- 72
2018-05-20 19:00:00 20.3 5 Sudoeste 9 Oeste 0 -- -- 69
2018-05-20 18:00:00 20.1 4 Sudoeste 9 Oeste 0 -- -- 69
2018-05-20 17:00:00 20.6 5 Sur 10 Sur 0 -- -- 67
2018-05-20 16:00:00 21.5 5 Sur 10 Sudeste 0 -- -- 66
2018-05-20 15:00:00 22.8 4 Sudeste 10 Este 0 -- -- 65
2018-05-20 14:00:00 23.1 3 Sur 9 Este 0 -- -- 64
2018-05-20 13:00:00 22.7 3 Sudeste 11 Sudeste 0 -- -- 67
2018-05-20 12:00:00 22 6 Sudeste 16 Este 0 -- -- 70
2018-05-20 11:00:00 21.3 4 Sudeste 8 Este 0 -- -- 74
2018-05-20 10:00:00 20.6 3 Sudoeste 8 Noroeste 0 -- -- 79
2018-05-20 09:00:00 18.7 0 Calma 9 Este 0 -- -- 84
2018-05-20 08:00:00 17.3 6 Este 9 Este 0 -- -- 84
2018-05-20 07:00:00 16.8 6 Nordeste 12 Este 0 -- -- 83
2018-05-20 06:00:00 16.9 7 Este 10 Este 0 -- -- 80
2018-05-20 05:00:00 17 6 Este 10 Este 0 -- -- 78
2018-05-20 04:00:00 16.9 3 Norte 6 Este 0 -- -- 77
2018-05-20 03:00:00 17 3 Nordeste 8 Norte 0 -- -- 75
2018-05-20 02:00:00 17 2 Norte 10 Norte 0 -- -- 76
2018-05-20 01:00:00 17.1 8 Norte 14 Norte 0 -- -- 76
2018-05-20 00:00:00 17.2 4 Norte 7 Norte 0 -- -- 76
2018-05-19 23:00:00 17.7 5 Norte 8 Noroeste 0 -- -- 77
2018-05-19 22:00:00 18.4 4 Oeste 10 Oeste 0 -- -- 78
2018-05-19 21:00:00 19.1 9 Oeste 13 Oeste 0 -- -- 78
2018-05-19 20:00:00 19 4 Oeste 11 Este 0 -- -- 79
2018-05-19 19:00:00 19.3 7 Sudeste 14 Sudeste 0 -- -- 78
2018-05-19 18:00:00 19.6 8 Sudeste 26 Este 0 -- -- 78
2018-05-19 17:00:00 19 23 Este 48 Este 0 -- -- 79
2018-05-19 16:00:00 19.1 33 Este 50 Este 0 -- -- 77
2018-05-19 15:00:00 19.1 37 Este 48 Este 0 -- -- 78
2018-05-19 14:00:00 19.2 37 Este 48 Este 0 -- -- 76
2018-05-19 13:00:00 19.3 40 Este 49 Este 0 -- -- 73
2018-05-19 12:00:00 19.8 28 Este 52 Este 0 -- -- 72
2018-05-19 11:00:00 19.4 27 Este 46 Este 0 -- -- 72
2018-05-19 10:00:00 18.9 22 Este 36 Este 0 -- -- 75
2018-05-19 09:00:00 18.5 25 Este 37 Nordeste 0 -- -- 74
2018-05-19 08:00:00 17.7 17 Nordeste 27 Este 0 -- -- 73
2018-05-19 07:00:00 17.4 16 Nordeste 27 Este 0 -- -- 70
2018-05-19 06:00:00 16.6 2 Norte 7 Norte 0 -- -- 71
2018-05-19 05:00:00 17.4 3 Noroeste 19 Nordeste 0 -- -- 70
2018-05-19 04:00:00 17.4 9 Nordeste 20 Nordeste 0 -- -- 71
2018-05-19 03:00:00 16.9 3 Este 6 Oeste 0 -- -- 76
2018-05-19 02:00:00 16.9 0 Calma 8 Oeste 0 -- -- 76
2018-05-19 01:00:00 16.6 5 Norte 8 Noroeste 0 -- -- 77
2018-05-19 00:00:00 17.3 3 Sudeste 4 Este 0 -- -- 81
2018-05-18 23:00:00 17.8 0 Calma 5 Noroeste 0 -- -- 81
2018-05-18 22:00:00 18.1 2 Oeste 6 Noroeste 0 -- -- 81
2018-05-18 21:00:00 18.3 4 Sudeste 17 Este 0 -- -- 81
2018-05-18 20:00:00 18.6 8 Este 13 Este 0 -- -- 81
2018-05-18 19:00:00 18.6 8 Sudeste 24 Este 0 -- -- 80
2018-05-18 18:00:00 18.3 22 Este 39 Este 0 -- -- 79
2018-05-18 17:00:00 18.5 33 Este 45 Este 0 -- -- 77
2018-05-18 16:00:00 19 30 Este 42 Este 0 -- -- 75
2018-05-18 15:00:00 19 35 Este 47 Este 0 -- -- 74
2018-05-18 14:00:00 19.1 37 Este 53 Este 0 -- -- 74
2018-05-18 13:00:00 19.2 35 Este 51 Este 0 -- -- 72
2018-05-18 12:00:00 18.9 37 Este 47 Este 0 -- -- 72
2018-05-18 11:00:00 19.3 28 Este 39 Este 0 -- -- 69
2018-05-18 10:00:00 19.1 21 Este 28 Sudeste 0 -- -- 75
2018-05-18 09:00:00 18 2 Sur 14 Este 0 -- -- 81
2018-05-18 08:00:00 16.6 3 Este 11 Nordeste 0 -- -- 83
2018-05-18 07:00:00 16.5 3 Norte 20 Este 0 -- -- 83
2018-05-18 06:00:00 16.6 11 Nordeste 18 Este 0 -- -- 81
2018-05-18 05:00:00 16.2 8 Este 13 Este 0 -- -- 80
2018-05-18 04:00:00 16.4 3 Sudoeste 7 Noroeste 0 -- -- 79
2018-05-18 03:00:00 16.5 0 Calma 4 Sudoeste 0 -- -- 79
2018-05-18 02:00:00 16.3 3 Noroeste 18 Nordeste 0 -- -- 79
2018-05-18 01:00:00 16.9 15 Nordeste 29 Nordeste 0 -- -- 79
2018-05-18 00:00:00 17.1 14 Nordeste 22 Nordeste 0 -- -- 77
2018-05-17 23:00:00 17.3 17 Nordeste 31 Nordeste 0 -- -- 75
2018-05-17 22:00:00 17.3 21 Este 40 Nordeste 0 -- -- 73
2018-05-17 21:00:00 17.6 25 Este 39 Nordeste 0 -- -- 72
2018-05-17 20:00:00 17.8 26 Este 56 Este 0 -- -- 70
2018-05-17 19:00:00 17.8 25 Este 53 Este 0 -- -- 72
2018-05-17 18:00:00 18 27 Este 56 Este 0 -- -- 74
2018-05-17 17:00:00 18 27 Este 62 Nordeste 0 -- -- 74
2018-05-17 16:00:00 19.1 27 Nordeste 59 Este 0 -- -- 67
2018-05-17 15:00:00 19.1 39 Nordeste 66 Nordeste 0 -- -- 66
2018-05-17 14:00:00 18.9 39 Nordeste 64 Nordeste 0 -- -- 70
2018-05-17 13:00:00 18.2 35 Nordeste 70 Nordeste 0 -- -- 73
2018-05-17 12:00:00 18 29 Nordeste 57 Nordeste 0 -- -- 70
2018-05-17 11:00:00 18 28 Nordeste 59 Este 0 -- -- 65
2018-05-17 10:00:00 17.9 34 Nordeste 54 Este 0 -- -- 65
2018-05-17 09:00:00 18 23 Nordeste 59 Nordeste 0 -- -- 63
2018-05-17 08:00:00 18 39 Nordeste 72 Este 0 -- -- 63
2018-05-17 07:00:00 18.8 35 Nordeste 67 Este 0 -- -- 56
2018-05-17 06:00:00 19.1 37 Nordeste 65 Nordeste 0 -- -- 52
2018-05-17 05:00:00 19.2 40 Nordeste 64 Norte 0 -- -- 50
2018-05-17 04:00:00 19.4 34 Nordeste 66 Nordeste 0 -- -- 48
2018-05-17 03:00:00 19.5 32 Nordeste 59 Nordeste 0 -- -- 46
2018-05-17 02:00:00 19.8 33 Nordeste 55 Nordeste 0 -- -- 45
2018-05-17 01:00:00 19.8 31 Nordeste 59 Norte 0 -- -- 45
2018-05-17 00:00:00 20 29 Nordeste 72 Nordeste 0 -- -- 42
2018-05-16 23:00:00 20.2 36 Nordeste 78 Nordeste 0 -- -- 39
2018-05-16 22:00:00 20.2 43 Nordeste 79 Este 0 -- -- 36
2018-05-16 21:00:00 20.1 48 Nordeste 81 Este 0 -- -- 36
2018-05-16 20:00:00 20.2 48 Nordeste 84 Nordeste 0 -- -- 35
2018-05-16 19:00:00 20.6 44 Nordeste 79 Nordeste 0 -- -- 35
2018-05-16 18:00:00 20.9 48 Nordeste 87 Nordeste 0 -- -- 33
2018-05-16 17:00:00 20.8 53 Este 82 Este 0 -- -- 35
2018-05-16 16:00:00 21.1 42 Este 79 Este 0 -- -- 36
2018-05-16 15:00:00 21.2 46 Este 83 Este 0 -- -- 38
2018-05-16 14:00:00 21.8 32 Este 65 Nordeste 0 -- -- 36
2018-05-16 13:00:00 21.2 39 Nordeste 73 Nordeste 0 -- -- 39
2018-05-16 12:00:00 21.7 26 Nordeste 52 Este 0 -- -- 32
2018-05-16 11:00:00 20.6 29 Nordeste 48 Este 0 -- -- 38
2018-05-16 10:00:00 19.6 20 Este 52 Este 0 -- -- 55
2018-05-16 09:00:00 18.5 29 Nordeste 49 Este 0 -- -- 59
2018-05-16 08:00:00 17.6 31 Nordeste 43 Nordeste 0 -- -- 55
2018-05-16 07:00:00 17.1 27 Nordeste 41 Este 0 -- -- 56
2018-05-16 06:00:00 17.2 25 Nordeste 44 Este 0 -- -- 59
2018-05-16 05:00:00 17.5 24 Nordeste 41 Este 0 -- -- 52
2018-05-16 04:00:00 17.5 11 Este 24 Este 0 -- -- 44
2018-05-16 03:00:00 17.6 11 Nordeste 30 Este 0 -- -- 45
2018-05-16 02:00:00 17.2 10 Nordeste 26 Este 0 -- -- 63
2018-05-16 01:00:00 17.3 12 Nordeste 32 Este 0 -- -- 70
2018-05-16 00:00:00 17.5 11 Nordeste 26 Este 0 -- -- 69
2018-05-15 23:00:00 17.7 3 Sur 31 Este 0 -- -- 68
2018-05-15 22:00:00 17.6 21 Este 43 Este 0 -- -- 69
2018-05-15 21:00:00 18.1 32 Este 44 Nordeste 0 -- -- 68
2018-05-15 20:00:00 18.5 24 Este 47 Nordeste 0 -- -- 67
2018-05-15 19:00:00 18.7 27 Este 42 Este 0 -- -- 65
2018-05-15 18:00:00 18.7 29 Este 44 Este 0 -- -- 66
2018-05-15 17:00:00 19.8 28 Este 40 Este 0 -- -- 55
2018-05-15 16:00:00 20.4 27 Este 40 Este 0 -- -- 49
2018-05-15 15:00:00 20.3 24 Este 46 Este 0 -- -- 53
2018-05-15 14:00:00 19.9 33 Este 53 Este 0 -- -- 58
2018-05-15 13:00:00 19.1 39 Este 61 Sudeste 0 -- -- 70
2018-05-15 12:00:00 19.2 36 Este 60 Este 0 -- -- 65
2018-05-15 11:00:00 20 27 Este 54 Este 0 -- -- 57
2018-05-15 10:00:00 19.3 26 Nordeste 51 Este 0 -- -- 65
2018-05-15 09:00:00 18.6 31 Este 49 Este 0 -- -- 65
2018-05-15 08:00:00 18 25 Este 37 Este 0 -- -- 50
2018-05-15 07:00:00 16.6 4 Este 10 Este 0 -- -- 37
2018-05-15 06:00:00 16.5 3 Noroeste 10 Noroeste 0 -- -- 32
2018-05-15 05:00:00 17.8 4 Noroeste 10 Este 0 -- -- 30
2018-05-15 04:00:00 18 5 Este 10 Sudeste 0 -- -- 29
2018-05-15 03:00:00 18.2 8 Este 14 Noroeste 0 -- -- 31
2018-05-15 02:00:00 18 10 Norte 13 Noroeste 0 -- -- 28
2018-05-15 01:00:00 18.2 4 Noroeste 9 Noroeste 0 -- -- 30
2018-05-15 00:00:00 18.5 3 Este 8 Este 0 -- -- 35
2018-05-14 23:00:00 18.8 6 Este 10 Norte 0 -- -- 40
2018-05-14 22:00:00 18 5 Noroeste 11 Norte 0 -- -- 42
2018-05-14 21:00:00 18.9 7 Oeste 10 Noroeste 0 -- -- 67
2018-05-14 20:00:00 19.4 4 Noroeste 10 Oeste 0 -- -- 66
2018-05-14 19:00:00 20.1 5 Oeste 10 Noroeste 0 -- -- 66
2018-05-14 18:00:00 20.5 6 Oeste 10 Noroeste 0 -- -- 63
2018-05-14 17:00:00 20.8 4 Oeste 10 Oeste 0 -- -- 60
2018-05-14 16:00:00 21.1 6 Sudoeste 10 Sudoeste 0 -- -- 62
2018-05-14 15:00:00 20.7 5 Sudoeste 10 Sur 0 -- -- 64
2018-05-14 14:00:00 22.1 3 Sur 17 Este 0 -- -- 61
2018-05-14 13:00:00 20.4 13 Este 21 Sudeste 0 -- -- 63
2018-05-14 12:00:00 20.1 13 Este 22 Este 0 -- -- 56
2018-05-14 11:00:00 19.5 13 Este 20 Sudeste 0 -- -- 59
2018-05-14 10:00:00 19.9 6 Sudeste 10 Nordeste 0 -- -- 55
2018-05-14 09:00:00 18.2 0 Calma 11 Norte 0 -- -- 58
2018-05-14 08:00:00 15.7 6 Norte 14 Norte 0 -- -- 63
2018-05-14 07:00:00 15.6 10 Norte 17 Norte 0 -- -- 60
2018-05-14 06:00:00 15.7 6 Norte 13 Norte 0 -- -- 60
2018-05-14 05:00:00 15.4 7 Norte 12 Norte 0 -- -- 67
2018-05-14 04:00:00 16 4 Nordeste 6 Este 0 -- -- 69
2018-05-14 03:00:00 16.1 0 Calma 5 Noroeste 0 -- -- 66
2018-05-14 02:00:00 16.4 2 Norte 6 Este 0 -- -- 61
2018-05-14 01:00:00 16.7 3 Este 12 Norte 0 -- -- 55
2018-05-11 20:00:00 -- -- -- -- -- -- -- -- --
2018-05-11 19:00:00 -- -- -- -- -- -- -- -- --
2018-05-11 18:00:00 -- -- -- -- -- -- -- -- --
2018-05-11 17:00:00 -- -- -- -- -- -- -- -- --
2018-05-11 16:00:00 19.6 24 Este 36 Este 0 -- -- 79
2018-05-11 15:00:00 19.7 31 Este 44 Sudeste 0 -- -- 77
2018-05-11 14:00:00 19.8 35 Este 45 Sudeste 0 -- -- 75
2018-05-11 13:00:00 20.4 32 Este 38 Este 0 -- -- 71
2018-05-11 12:00:00 20.3 31 Este 37 Este 0 -- -- 70
2018-05-11 11:00:00 20.6 23 Este 34 Este 0 -- -- 70
2018-05-11 10:00:00 20.3 14 Este 32 Este 0 -- -- 75
2018-05-11 09:00:00 19.1 10 Nordeste 23 Este 0 -- -- 83
2018-05-11 08:00:00 17.9 3 Noroeste 18 Este 0 -- -- 85
2018-05-11 07:00:00 17.7 5 Nordeste 13 Nordeste 0 -- -- 85
2018-05-11 06:00:00 18 8 Este 12 Este 0 -- -- 84
2018-05-11 05:00:00 18.3 5 Este 11 Sudeste 0 -- -- 84
2018-05-11 04:00:00 18.4 4 Este 22 Nordeste 0 -- -- 84
2018-05-11 03:00:00 18.4 14 Este 23 Nordeste 0 -- -- 84
2018-05-11 02:00:00 18.6 15 Nordeste 31 Este 0 -- -- 84
2018-05-11 01:00:00 18.6 21 Este 39 Este 0 -- -- 84
2018-05-11 00:00:00 18.7 20 Este 34 Este 0 -- -- 82
2018-05-10 23:00:00 19.2 16 Este 28 Este 0 -- -- 79
2018-05-10 22:00:00 19.4 3 Noroeste 20 Noroeste 0 -- -- 79
2018-05-10 21:00:00 19.9 12 Oeste 20 Noroeste 0 -- -- 77
2018-05-10 20:00:00 20.9 4 Sudoeste 44 Nordeste 0 -- -- 73
2018-05-10 19:00:00 20.4 17 Este 41 Nordeste 0 -- -- 78
2018-05-10 18:00:00 20.1 10 Oeste 22 Sudoeste 0 -- -- 76
2018-05-10 17:00:00 20.5 8 Oeste 20 Noroeste 0 -- -- 74
2018-05-10 16:00:00 20.1 10 Oeste 21 Oeste 0 -- -- 73
2018-05-10 15:00:00 21.9 7 Oeste 21 Oeste 0 -- -- 71
2018-05-10 14:00:00 21.6 15 Oeste 22 Oeste 0 -- -- 74
2018-05-10 13:00:00 20.6 6 Oeste 15 Sudoeste 0 -- -- 76
2018-05-10 12:00:00 20.8 5 Oeste 15 Oeste 0 -- -- 76
2018-05-10 11:00:00 20.7 4 Oeste 20 Oeste 0 -- -- 82
2018-05-10 10:00:00 19.3 10 Oeste 16 Noroeste 0 -- -- 84
2018-05-10 09:00:00 18.9 8 Oeste 15 Sudoeste 0 -- -- 87
2018-05-10 08:00:00 17.5 9 Oeste 21 Oeste 0 -- -- 87
2018-05-10 07:00:00 17.5 14 Oeste 24 Oeste 0 -- -- 86
2018-05-10 06:00:00 17.5 16 Oeste 27 Noroeste 0 -- -- 86
2018-05-10 05:00:00 17.6 17 Noroeste 33 Noroeste 0 -- -- 85
2018-05-10 04:00:00 17.8 17 Oeste 32 Oeste 0 -- -- 85
2018-05-10 03:00:00 18.1 20 Oeste 30 Oeste 0 -- -- 84
2018-05-10 02:00:00 18.3 16 Oeste 34 Noroeste 0 -- -- 84
2018-05-10 01:00:00 18.6 15 Oeste 29 Noroeste 0 -- -- 83
2018-05-10 00:00:00 18.7 16 Noroeste 29 Noroeste 0 -- -- 83
2018-05-09 23:00:00 18.9 17 Oeste 33 Noroeste 0 -- -- 82
2018-05-09 22:00:00 19.1 18 Oeste 47 Oeste 0 -- -- 80
2018-05-09 21:00:00 19.4 12 Noroeste 24 Oeste 0 -- -- 78
2018-05-09 20:00:00 20 10 Oeste 31 Oeste 0 -- -- 77
2018-05-09 19:00:00 20.3 19 Oeste 31 Oeste 0 -- -- 75
2018-05-09 18:00:00 21.3 23 Oeste 30 Oeste 0 -- -- 73
2018-05-09 17:00:00 22 15 Oeste 25 Oeste 0 -- -- 72
2018-05-09 16:00:00 22.4 11 Oeste 22 Oeste 0 -- -- 71
2018-05-09 15:00:00 22.7 9 Oeste 19 Oeste 0 -- -- 72
2018-05-09 14:00:00 22.7 7 Oeste 14 Sudoeste 0 -- -- 73
2018-05-09 13:00:00 22.3 6 Oeste 14 Oeste 0 -- -- 74
2018-05-09 12:00:00 22.3 8 Oeste 18 Noroeste 0 -- -- 76
2018-05-09 11:00:00 21.7 11 Oeste 21 Oeste 0 -- -- 78
2018-05-09 10:00:00 20.2 17 Oeste 26 Noroeste 0 -- -- 82
2018-05-09 09:00:00 18.7 10 Oeste 18 Oeste 0 -- -- 86
2018-05-09 08:00:00 17.2 5 Noroeste 10 Oeste 0 -- -- 87
2018-05-09 07:00:00 17.3 2 Sudeste 5 Norte 0 -- -- 87
2018-05-09 06:00:00 17.5 0 Calma 10 Noroeste 0 -- -- 87
2018-05-09 05:00:00 17.9 3 Oeste 13 Oeste 0 -- -- 86
2018-05-09 04:00:00 17.9 5 Oeste 16 Noroeste 0 -- -- 86
2018-05-09 03:00:00 18 5 Oeste 12 Noroeste 0 -- -- 86
2018-05-09 02:00:00 18.1 6 Oeste 19 Oeste 0 -- -- 85
2018-05-09 01:00:00 18.1 7 Oeste 18 Oeste 0 -- -- 85
2018-05-09 00:00:00 18.2 10 Noroeste 23 Oeste 0 -- -- 84
2018-05-08 23:00:00 18.4 13 Oeste 19 Noroeste 0 -- -- 83
2018-05-08 22:00:00 18.5 10 Oeste 23 Noroeste 0 -- -- 82
2018-05-08 21:00:00 18.6 14 Noroeste 20 Noroeste 0 -- -- 80
2018-05-08 20:00:00 19.2 7 Noroeste 22 Oeste 0 -- -- 79
2018-05-08 19:00:00 19.4 9 Oeste 22 Oeste 0 -- -- 78
2018-05-08 18:00:00 20.1 8 Oeste 23 Oeste 0 -- -- 74
2018-05-08 17:00:00 21.4 13 Oeste 19 Noroeste 0 -- -- 71
2018-05-08 16:00:00 21.4 9 Oeste 20 Oeste 0 -- -- 71
2018-05-08 15:00:00 21.5 9 Oeste 23 Oeste 0 -- -- 71
2018-05-08 14:00:00 21.4 12 Oeste 26 Oeste 0 -- -- 73
2018-05-08 13:00:00 21.1 11 Oeste 23 Oeste 0 -- -- 76
2018-05-08 12:00:00 20 13 Oeste 23 Oeste 0 -- -- 79
2018-05-08 11:00:00 19.6 12 Oeste 24 Sudoeste 0 -- -- 79
2018-05-08 10:00:00 19.3 7 Oeste 16 Sudoeste 0 -- -- 81
2018-05-08 09:00:00 18.1 4 Oeste 9 Sudoeste 0 -- -- 83
2018-05-08 08:00:00 16.8 5 Este 9 Este 0 -- -- 82
2018-05-08 07:00:00 17.2 0 Calma 18 Noroeste 0 -- -- 80
2018-05-08 06:00:00 17.3 9 Oeste 21 Noroeste 0 -- -- 79
2018-05-08 05:00:00 17.1 10 Noroeste 22 Noroeste 0 -- -- 81
2018-05-08 04:00:00 16.9 12 Noroeste 21 Noroeste 0 -- -- 82
2018-05-08 03:00:00 17.1 15 Noroeste 26 Noroeste 0 -- -- 82
2018-05-08 02:00:00 17.1 12 Oeste 20 Noroeste 0 -- -- 81
2018-05-08 01:00:00 16.6 6 Noroeste 12 Noroeste 0 -- -- 80
2018-05-08 00:00:00 17.3 0 Calma 5 Norte 0 -- -- 79
2018-05-07 23:00:00 17.2 4 Noroeste 12 Sudoeste 0 -- -- 78
2018-05-07 22:00:00 17.8 4 Oeste 16 Noroeste 0 -- -- 77
2018-05-07 21:00:00 18 11 Noroeste 26 Noroeste 0 -- -- 76
2018-05-07 20:00:00 18.7 14 Oeste 24 Noroeste 0 -- -- 75
2018-05-07 19:00:00 19.1 3 Sudeste 37 Este 0 -- -- 70
2018-05-07 18:00:00 17.8 31 Este 74 Este 0 -- -- 78
2018-05-07 17:00:00 18.3 45 Este 70 Este 0 -- -- 73
2018-05-07 16:00:00 18.8 51 Este 72 Este 0 -- -- 67
2018-05-07 15:00:00 23 31 Nordeste 61 Este 0 -- -- 49
2018-05-07 14:00:00 21.2 24 Este 43 Nordeste 0 -- -- 56
2018-05-07 13:00:00 20 30 Este 51 Este 0 -- -- 61
2018-05-07 12:00:00 19.9 33 Este 46 Este 0 -- -- 61
2018-05-07 11:00:00 20.2 21 Este 40 Nordeste 0 -- -- 59
2018-05-07 10:00:00 20.3 19 Este 36 Este 0 -- -- 58
2018-05-07 09:00:00 18.9 14 Nordeste 27 Este 0 -- -- 61
2018-05-07 08:00:00 18.6 4 Nordeste 27 Nordeste 0 -- -- 60
2018-05-07 07:00:00 18.7 16 Nordeste 45 Nordeste 0 -- -- 56
2018-05-07 06:00:00 18.6 18 Norte 41 Nordeste 0 -- -- 58
2018-05-07 05:00:00 18.2 15 Nordeste 31 Nordeste 0 -- -- 62
2018-05-07 04:00:00 18 13 Nordeste 37 Nordeste 0 -- -- 64
2018-05-07 03:00:00 17.8 23 Nordeste 46 Nordeste 0 -- -- 68
2018-05-07 02:00:00 17.5 22 Nordeste 45 Nordeste 0 -- -- 72
2018-05-07 01:00:00 17.6 24 Nordeste 42 Nordeste 0 -- -- 72
2018-05-07 00:00:00 18 16 Nordeste 48 Este 0 -- -- 69
2018-05-06 23:00:00 18.4 20 Nordeste 57 Nordeste 0 -- -- 65
2018-05-06 22:00:00 18.4 30 Nordeste 55 Nordeste 0 -- -- 62
2018-05-06 21:00:00 18.7 30 Nordeste 53 Nordeste 0 -- -- 62
2018-05-06 20:00:00 19.4 31 Nordeste 48 Nordeste 0 -- -- 59
2018-05-06 19:00:00 19.8 26 Este 55 Nordeste 0 -- -- 58
2018-05-06 18:00:00 20 26 Este 51 Este 0 -- -- 58
2018-05-06 17:00:00 19.5 30 Este 52 Este 0 -- -- 68
2018-05-06 16:00:00 18.9 28 Este 54 Este 0 -- -- 72
2018-05-06 15:00:00 19.2 27 Este 59 Este 0 -- -- 71
2018-05-06 14:00:00 19 32 Este 54 Nordeste 0 -- -- 70
2018-05-06 13:00:00 18.9 36 Este 69 Este 0 -- -- 69
2018-05-06 12:00:00 19.1 33 Este 59 Este 0 -- -- 64
2018-05-06 11:00:00 19.4 27 Este 46 Este 0 -- -- 57
2018-05-06 10:00:00 19.3 21 Este 34 Este 0 -- -- 57
2018-05-06 09:00:00 18.4 17 Este 31 Este 0 -- -- 58
2018-05-06 08:00:00 17.2 18 Nordeste 32 Este 0 -- -- 62
2018-05-06 07:00:00 16.8 14 Nordeste 23 Este 0 -- -- 58
2018-05-06 06:00:00 17.1 15 Nordeste 24 Nordeste 0 -- -- 58
2018-05-06 05:00:00 17.4 15 Nordeste 27 Nordeste 0 -- -- 58
2018-05-06 04:00:00 17.5 18 Nordeste 31 Este 0 -- -- 58
2018-05-06 03:00:00 17.7 17 Nordeste 27 Nordeste 0 -- -- 58
2018-05-06 02:00:00 16.8 2 Noroeste 18 Noroeste 0 -- -- 68
2018-05-06 01:00:00 17.1 13 Nordeste 26 Este 0 -- -- 67
2018-05-06 00:00:00 16.8 15 Nordeste 33 Nordeste 0 -- -- 74
2018-05-05 23:00:00 16.8 4 Oeste 14 Noroeste 0 -- -- 82
2018-05-05 22:00:00 16.8 3 Oeste 18 Este 0 -- -- 83
2018-05-05 21:00:00 17 3 Sudeste 25 Sudeste 0 -- -- 83
2018-05-05 20:00:00 17.3 19 Este 22 Este 0 -- -- 82
2018-05-05 19:00:00 18.2 10 Este 14 Sudeste 0 -- -- 79
2018-05-05 18:00:00 18.5 4 Sudeste 10 Sudeste 0 -- -- 78
2018-05-05 17:00:00 19.1 6 Sudeste 10 Este 0 -- -- 75
2018-05-05 16:00:00 20 6 Sudeste 11 Sudeste 0 -- -- 75
2018-05-05 15:00:00 20.1 7 Sudeste 17 Este 0 -- -- 77
2018-05-05 14:00:00 18.9 14 Este 24 Este 0 -- -- 78
2018-05-05 13:00:00 18.6 19 Este 30 Este 0 -- -- 78
2018-05-05 12:00:00 17.5 20 Este 27 Este 0 -- -- 80
2018-05-05 11:00:00 16.9 21 Este 28 Nordeste 0 -- -- 79
2018-05-05 10:00:00 16.9 17 Este 24 Este 0 -- -- 77
2018-05-05 09:00:00 16.6 11 Nordeste 22 Nordeste 0 -- -- 76
2018-05-05 08:00:00 16.4 10 Nordeste 27 Nordeste 0 -- -- 78
2018-05-05 07:00:00 16.2 13 Nordeste 28 Este 0 -- -- 79
2018-05-05 06:00:00 15.9 2 Noroeste 11 Noroeste 0 -- -- 80
2018-05-05 05:00:00 15.9 5 Noroeste 18 Noroeste 0 -- -- 80
2018-05-05 04:00:00 16.1 6 Oeste 22 Este 0 -- -- 79
2018-05-05 03:00:00 16.5 10 Nordeste 37 Nordeste 0 -- -- 78
2018-05-05 02:00:00 16.6 24 Este 33 Este 0 -- -- 76
2018-05-05 01:00:00 16.6 14 Nordeste 22 Este 0 -- -- 75
2018-05-05 00:00:00 16.3 8 Este 14 Sudeste 0 -- -- 75
2018-05-04 23:00:00 16.5 7 Norte 10 Norte 0 -- -- 74
2018-05-04 22:00:00 16.4 5 Este 22 Este 0 -- -- 79
2018-05-04 21:00:00 16.9 16 Este 35 Este 0 -- -- 79
2018-05-04 20:00:00 16.7 26 Este 37 Este 0 -- -- 80
2018-05-04 19:00:00 17.2 27 Este 34 Sudeste 0 -- -- 77
2018-05-04 18:00:00 17.3 25 Este 32 Este 0 -- -- 77
2018-05-04 17:00:00 18.2 16 Este 24 Este 0 -- -- 74
2018-05-04 16:00:00 19.2 11 Este 20 Este 0 -- -- 73
2018-05-04 15:00:00 19.9 4 Sur 14 Este 0 -- -- 72
2018-05-04 14:00:00 19 9 Este 23 Este 0 -- -- 72
2018-05-04 13:00:00 17.5 17 Este 22 Este 0 -- -- 75
2018-05-04 12:00:00 17.6 9 Este 18 Este 0 -- -- 79
2018-05-04 11:00:00 16.7 7 Este 13 Este 0 -- -- 83
2018-05-04 10:00:00 16.9 0 Calma 12 Norte 0 -- -- 84
2018-05-04 09:00:00 16.2 9 Norte 19 Oeste 0.6 -- -- 83
2018-05-04 08:00:00 15.9 0 Calma 13 Nordeste 0.2 -- -- 83
2018-05-04 07:00:00 15.9 10 Nordeste 20 Este 0 -- -- 85
2018-05-04 06:00:00 16.6 0 Calma 5 Oeste 0 -- -- 84
2018-05-04 05:00:00 16.7 3 Oeste 14 Noroeste 0 -- -- 83
2018-05-04 04:00:00 16.7 7 Oeste 16 Noroeste 0 -- -- 81
2018-05-04 03:00:00 16.7 9 Oeste 20 Noroeste 0 -- -- 78
2018-05-04 02:00:00 16.8 11 Oeste 20 Noroeste 0 -- -- 75
2018-05-04 01:00:00 16.9 11 Oeste 27 Noroeste 0 -- -- 74
2018-05-04 00:00:00 17 13 Oeste 24 Noroeste 0 -- -- 73
2018-05-03 23:00:00 16.9 10 Oeste 27 Noroeste 0 -- -- 73
2018-05-03 22:00:00 17 17 Noroeste 25 Noroeste 0 -- -- 72
2018-05-03 21:00:00 17.1 11 Oeste 21 Noroeste 0 -- -- 71
2018-05-03 20:00:00 17.6 12 Oeste 30 Oeste 0 -- -- 71
2018-05-03 19:00:00 18.1 19 Oeste 28 Oeste 0 -- -- 70
2018-05-03 18:00:00 18.5 14 Oeste 28 Sudoeste 0 -- -- 69
2018-05-03 17:00:00 19.3 14 Oeste 29 Sudoeste 0 -- -- 65
2018-05-03 16:00:00 19.7 13 Oeste 31 Oeste 0 -- -- 65
2018-05-03 15:00:00 20.6 12 Oeste 24 Oeste 0 -- -- 65
2018-05-03 14:00:00 21.3 11 Oeste 23 Noroeste 0 -- -- 63
2018-05-03 13:00:00 20.7 12 Oeste 20 Oeste 0 -- -- 69
2018-05-03 12:00:00 20.6 6 Sudoeste 13 Sudoeste 0 -- -- 69
2018-05-03 11:00:00 20.4 6 Oeste 17 Oeste 0 -- -- 68
2018-05-03 10:00:00 18.9 13 Oeste 31 Noroeste 0 -- -- 61
2018-05-03 09:00:00 16.9 18 Noroeste 26 Oeste 0 -- -- 73
2018-05-03 08:00:00 15.8 12 Noroeste 21 Noroeste 0 -- -- 81
2018-05-03 07:00:00 15.8 11 Oeste 24 Noroeste 0 -- -- 78
2018-05-03 06:00:00 15.2 11 Oeste 21 Oeste 0 -- -- 82
2018-05-03 05:00:00 15.5 14 Oeste 22 Oeste 0 -- -- 81
2018-05-03 04:00:00 15.2 9 Noroeste 14 Noroeste 0 -- -- 80
2018-05-03 03:00:00 15.8 8 Oeste 27 Noroeste 0 -- -- 80
2018-05-03 02:00:00 15.8 17 Noroeste 30 Noroeste 0 -- -- 78
2018-05-03 01:00:00 15.9 14 Noroeste 28 Noroeste 0 -- -- 77
2018-05-03 00:00:00 16.2 16 Noroeste 28 Noroeste 0 -- -- 75
2018-05-02 23:00:00 16.4 19 Noroeste 28 Noroeste 0 -- -- 74
2018-05-02 22:00:00 16.5 16 Oeste 30 Oeste 0 -- -- 72
2018-05-02 21:00:00 16.4 15 Oeste 28 Oeste 0 -- -- 70
2018-05-02 20:00:00 16.8 14 Oeste 26 Sudoeste 0 -- -- 68
2018-05-02 19:00:00 17 14 Oeste 30 Sudoeste 0 -- -- 67
2018-05-02 18:00:00 17.4 15 Oeste 31 Oeste 0 -- -- 63
2018-05-02 17:00:00 18.6 8 Oeste 22 Oeste 0 -- -- 60
2018-05-02 16:00:00 20 11 Oeste 22 Sudoeste 0 -- -- 57
2018-05-02 15:00:00 19.5 5 Oeste 18 Oeste 0 -- -- 57
2018-05-02 14:00:00 19.4 5 Sudoeste 13 Oeste 0 -- -- 52
2018-05-02 13:00:00 19.1 5 Oeste 13 Sudoeste 0 -- -- 57
2018-05-02 12:00:00 17.8 6 Sur 15 Oeste 0 -- -- 57
2018-05-02 11:00:00 18.1 10 Oeste 39 Noroeste 0 -- -- 49
2018-05-02 10:00:00 16.9 24 Noroeste 37 Noroeste 0 -- -- 44
2018-05-02 09:00:00 16.1 24 Noroeste 43 Noroeste 0 -- -- 44
2018-05-02 08:00:00 14.1 21 Noroeste 35 Noroeste 0 -- -- 51
2018-05-02 07:00:00 12.8 14 Noroeste 26 Noroeste 0 -- -- 58
2018-05-02 06:00:00 12.6 14 Noroeste 30 Noroeste 0 -- -- 62
2018-05-02 05:00:00 13 19 Noroeste 30 Noroeste 0 -- -- 65
2018-05-02 04:00:00 13.4 14 Noroeste 22 Oeste 0 -- -- 70
2018-05-02 03:00:00 13.4 12 Noroeste 21 Noroeste 0 -- -- 71
2018-05-02 02:00:00 13.7 10 Noroeste 23 Oeste 0 -- -- 70
2018-05-02 01:00:00 14.2 10 Oeste 23 Oeste 0 -- -- 68
2018-05-02 00:00:00 14.4 6 Oeste 36 Noroeste 0 -- -- 67
2018-05-01 23:00:00 14.1 23 Noroeste 42 Noroeste 0 -- -- 62
2018-05-01 22:00:00 13 25 Noroeste 36 Norte 0 -- -- 68
2018-05-01 21:00:00 13.3 19 Noroeste 41 Noroeste 0 -- -- 65
2018-05-01 20:00:00 13.4 26 Noroeste 43 Norte 0 -- -- 67
2018-05-01 19:00:00 12.6 29 Noroeste 60 Noroeste 0.4 -- -- 67
2018-05-01 18:00:00 13.3 35 Norte 63 Noroeste 0 -- -- 61
2018-05-01 17:00:00 17.1 7 Noroeste 28 Nordeste 0 -- -- 46
2018-05-01 16:00:00 16.4 17 Nordeste 39 Norte 0 -- -- 50
2018-05-01 15:00:00 18.1 3 Sudeste 13 Este 0 -- -- 65
2018-05-01 14:00:00 18.2 9 Sudeste 32 Este 0 -- -- 65
2018-05-01 13:00:00 17 26 Este 35 Este 0 -- -- 64
2018-05-01 12:00:00 17.5 25 Este 31 Este 0 -- -- 64
2018-05-01 11:00:00 17.3 19 Este 27 Este 0 -- -- 66
2018-05-01 10:00:00 16.1 17 Este 26 Este 0 -- -- 69
2018-05-01 09:00:00 15.5 12 Este 18 Este 0 -- -- 74
2018-05-01 08:00:00 15.1 11 Este 20 Este 0 -- -- 74
2018-05-01 07:00:00 15 13 Este 18 Este 0 -- -- 73
2018-05-01 06:00:00 15.2 11 Este 23 Este 0 -- -- 73
2018-05-01 05:00:00 15.5 13 Este 26 Este 0 -- -- 71
2018-05-01 04:00:00 15.6 15 Sudeste 31 Este 0 -- -- 71
2018-05-01 03:00:00 15.8 22 Este 33 Este 0 -- -- 66
2018-05-01 02:00:00 15.8 20 Este 30 Este 0 -- -- 66
2018-05-01 01:00:00 15.7 19 Este 32 Este 0 -- -- 67
2018-05-01 00:00:00 16.1 14 Este 24 Este 0 -- -- 68
2018-04-30 23:00:00 16 11 Noroeste 35 Noroeste 0 -- -- 73
2018-04-30 22:00:00 16.2 26 Oeste 46 Oeste 0 -- -- 72
2018-04-30 21:00:00 16 24 Oeste 46 Oeste 0 -- -- 71
2018-04-30 20:00:00 16.2 21 Oeste 35 Oeste 0 -- -- 70
2018-04-30 19:00:00 16.2 19 Oeste 37 Oeste 0 -- -- 69
2018-04-30 18:00:00 16.3 18 Oeste 35 Oeste 0 -- -- 66
2018-04-30 17:00:00 16.8 14 Oeste 35 Sudoeste 0 -- -- 62
2018-04-30 16:00:00 17.3 14 Oeste 40 Oeste 0 -- -- 60
2018-04-30 15:00:00 18.2 21 Oeste 38 Sudoeste 0 -- -- 58
2018-04-30 14:00:00 18.1 20 Oeste 37 Oeste 0 -- -- 58
2018-04-30 13:00:00 18.3 17 Oeste 30 Sur 0 -- -- 60
2018-04-30 12:00:00 17.7 15 Oeste 30 Noroeste 0 -- -- 64
2018-04-30 11:00:00 17.3 14 Oeste 30 Oeste 0 -- -- 67
2018-04-30 10:00:00 16.4 14 Oeste 27 Oeste 0 -- -- 72
2018-04-30 09:00:00 15.5 15 Oeste 26 Oeste 0 -- -- 73
2018-04-30 08:00:00 14.7 10 Oeste 25 Sudoeste 0 -- -- 75
2018-04-30 07:00:00 14.4 7 Oeste 25 Sudoeste 0 -- -- 75
2018-04-30 06:00:00 14.6 6 Sudoeste 19 Oeste 0 -- -- 75
2018-04-30 05:00:00 14.5 3 Oeste 19 Noroeste 0 -- -- 76
2018-04-30 04:00:00 14.5 12 Noroeste 37 Noroeste 0 -- -- 77
2018-04-30 03:00:00 14.9 21 Oeste 37 Oeste 0 -- -- 78
2018-04-30 02:00:00 15.4 29 Oeste 37 Oeste 0 -- -- 77
2018-04-30 01:00:00 15.4 25 Oeste 37 Oeste 0 -- -- 76
2018-04-30 00:00:00 15.6 18 Oeste 39 Sudoeste 0 -- -- 75
2018-04-29 23:00:00 15.7 20 Oeste 41 Oeste 0 -- -- 74
2018-04-29 22:00:00 15.7 21 Oeste 46 Sudoeste 0 -- -- 73
2018-04-29 21:00:00 15.9 26 Oeste 50 Oeste 0 -- -- 72
2018-04-29 20:00:00 16.1 27 Oeste 50 Oeste 0 -- -- 71
2018-04-29 19:00:00 16.3 28 Oeste 53 Oeste 0 -- -- 69
2018-04-29 18:00:00 16.4 28 Oeste 58 Sudoeste 0 -- -- 69
2018-04-29 17:00:00 16.7 24 Oeste 52 Oeste 0 -- -- 66
2018-04-29 16:00:00 17 20 Oeste 42 Norte 0 -- -- 64
2018-04-29 15:00:00 16.9 20 Oeste 44 Oeste 0 -- -- 62
2018-04-29 14:00:00 16.7 27 Oeste 52 Oeste 0 -- -- 61
2018-04-29 13:00:00 16.6 22 Oeste 53 Oeste 0 -- -- 61
2018-04-29 12:00:00 16.4 22 Oeste 53 Sudoeste 0 -- -- 62
2018-04-29 11:00:00 16.2 31 Oeste 67 Sudoeste 0 -- -- 63
2018-04-29 10:00:00 16 34 Oeste 60 Sudoeste 0 -- -- 66
2018-04-29 09:00:00 15.6 27 Oeste 54 Sudoeste 0 -- -- 69
2018-04-29 08:00:00 14.9 31 Oeste 58 Oeste 0 -- -- 72
2018-04-29 07:00:00 14.7 30 Oeste 55 Oeste 0 -- -- 75
2018-04-29 06:00:00 14.8 37 Oeste 83 Oeste 0 -- -- 74
2018-04-29 05:00:00 15 43 Oeste 69 Oeste 0 -- -- 73
2018-04-29 04:00:00 15.3 39 Oeste 90 Oeste 0 -- -- 73
2018-04-29 03:00:00 15.4 42 Oeste 72 Oeste 0 -- -- 71
2018-04-29 02:00:00 15.5 33 Oeste 59 Noroeste 0 -- -- 73
2018-04-29 01:00:00 15.9 35 Oeste 57 Noroeste 0 -- -- 72
2018-04-29 00:00:00 16.2 28 Oeste 57 Sudoeste 0 -- -- 71
2018-04-28 23:00:00 16.6 28 Oeste 55 Oeste 0 -- -- 70
2018-04-28 22:00:00 17 33 Oeste 55 Oeste 0 -- -- 72
2018-04-28 21:00:00 17.2 31 Oeste 52 Oeste 0 -- -- 73
2018-04-28 20:00:00 17.7 29 Oeste 51 Oeste 0 -- -- 73
2018-04-28 19:00:00 17.8 21 Oeste 37 Oeste 0 -- -- 74
2018-04-28 18:00:00 18.1 17 Oeste 44 Oeste 0 -- -- 74
2018-04-28 17:00:00 18.5 25 Oeste 45 Oeste 0 -- -- 73
2018-04-28 16:00:00 18.9 27 Oeste 46 Oeste 0 -- -- 73
2018-04-28 15:00:00 19.2 19 Oeste 39 Sudoeste 0 -- -- 75
2018-04-28 14:00:00 20.5 10 Oeste 21 Oeste 0 -- -- 77
2018-04-28 13:00:00 20.2 7 Oeste 20 Sudoeste 0 -- -- 83
2018-04-28 12:00:00 19.6 8 Oeste 16 Oeste 0 -- -- 87
2018-04-28 11:00:00 18.3 4 Oeste 21 Noroeste 0 -- -- 89
2018-04-28 10:00:00 17.3 13 Oeste 27 Oeste 0 -- -- 90
2018-04-28 09:00:00 16.7 17 Noroeste 29 Noroeste 0 -- -- 91
2018-04-28 08:00:00 16.4 14 Oeste 26 Noroeste 0 -- -- 90
2018-04-28 07:00:00 16.6 14 Oeste 26 Noroeste 0 -- -- 89
2018-04-28 06:00:00 16.7 17 Oeste 27 Noroeste 0 -- -- 89
2018-04-28 05:00:00 16.9 18 Oeste 25 Oeste 0 -- -- 88
2018-04-28 04:00:00 16.9 11 Oeste 26 Noroeste 0 -- -- 87
2018-04-28 03:00:00 17.1 17 Noroeste 32 Noroeste 0 -- -- 87
2018-04-28 02:00:00 17.2 21 Noroeste 31 Noroeste 0 -- -- 86
2018-04-28 01:00:00 17.3 15 Oeste 30 Noroeste 0 -- -- 85
2018-04-28 00:00:00 17.4 21 Noroeste 34 Noroeste 0 -- -- 83
2018-04-27 23:00:00 17.6 17 Noroeste 26 Noroeste 0 -- -- 81
2018-04-27 22:00:00 17.7 10 Oeste 23 Noroeste 0 -- -- 79
2018-04-27 21:00:00 18.1 11 Oeste 28 Noroeste 0 -- -- 76
2018-04-27 20:00:00 18.6 17 Oeste 30 Oeste 0 -- -- 74
2018-04-27 19:00:00 19.2 12 Oeste 34 Noroeste 0 -- -- 71
2018-04-27 18:00:00 19.3 17 Oeste 29 Oeste 0 -- -- 71
2018-04-27 17:00:00 20 17 Oeste 29 Noroeste 0 -- -- 71
2018-04-27 16:00:00 20.8 15 Oeste 23 Oeste 0 -- -- 72
2018-04-27 15:00:00 20.9 14 Oeste 19 Oeste 0 -- -- 73
2018-04-27 14:00:00 20.5 9 Oeste 16 Oeste 0 -- -- 76
2018-04-27 13:00:00 20.1 6 Oeste 18 Oeste 0 -- -- 80
2018-04-27 12:00:00 19.7 9 Oeste 16 Sudoeste 0 -- -- 83
2018-04-27 11:00:00 18.9 9 Oeste 22 Oeste 0 -- -- 86
2018-04-27 10:00:00 17.9 15 Oeste 22 Oeste 0 -- -- 88
2018-04-27 09:00:00 16.9 12 Oeste 30 Oeste 0 -- -- 90
2018-04-27 08:00:00 15.9 23 Oeste 30 Oeste 0 -- -- 90
2018-04-27 07:00:00 16 19 Oeste 28 Oeste 0 -- -- 90
2018-04-27 06:00:00 16.2 23 Oeste 31 Oeste 0 -- -- 89
2018-04-27 05:00:00 16.4 23 Oeste 30 Sudoeste 0 -- -- 89
2018-04-27 04:00:00 16.4 14 Oeste 31 Oeste 0 -- -- 88
2018-04-27 03:00:00 16.4 15 Noroeste 26 Noroeste 0 -- -- 87
2018-04-27 02:00:00 16.3 14 Oeste 22 Noroeste 0 -- -- 86
2018-04-27 01:00:00 16.5 11 Noroeste 22 Oeste 0 -- -- 85
2018-04-27 00:00:00 16.4 13 Noroeste 24 Noroeste 0 -- -- 84
2018-04-26 23:00:00 16.6 12 Noroeste 27 Noroeste 0 -- -- 82
2018-04-26 22:00:00 16.8 6 Noroeste 10 Norte 0 -- -- 80
2018-04-26 21:00:00 17.6 0 Calma 10 Oeste 0 -- -- 77
2018-04-26 20:00:00 17.9 9 Oeste 20 Oeste 0 -- -- 73
2018-04-26 19:00:00 17.8 12 Nordeste 32 Este 0 -- -- 72
2018-04-26 18:00:00 18 18 Nordeste 35 Nordeste 0 -- -- 73
2018-04-26 17:00:00 17.5 23 Nordeste 47 Este 0 -- -- 75
2018-04-26 16:00:00 17.3 28 Este 52 Nordeste 0 -- -- 78
2018-04-26 15:00:00 17.7 20 Este 42 Este 0 -- -- 76
2018-04-26 14:00:00 18.2 10 Nordeste 36 Este 0 -- -- 72
2018-04-26 13:00:00 18.5 12 Norte 39 Norte 0 -- -- 77
2018-04-26 12:00:00 17.8 15 Norte 31 Noroeste 0 -- -- 85
2018-04-26 11:00:00 17.1 8 Nordeste 27 Nordeste 0 -- -- 84
2018-04-26 10:00:00 16.7 18 Nordeste 32 Nordeste 0 -- -- 86
2018-04-26 09:00:00 16 7 Este 17 Este 0 -- -- 86
2018-04-26 08:00:00 15.9 9 Este 37 Este 0 -- -- 85
2018-04-26 07:00:00 17.6 24 Este 36 Este 0 -- -- 84
2018-04-26 06:00:00 16.8 17 Noroeste 28 Noroeste 0 -- -- 86
2018-04-26 05:00:00 16.7 17 Noroeste 26 Noroeste 0 -- -- 86
2018-04-26 04:00:00 16.8 8 Oeste 14 Noroeste 0 -- -- 85
2018-04-26 03:00:00 17 0 Calma 10 Este 0 -- -- 84
2018-04-26 02:00:00 17.2 3 Oeste 8 Oeste 0 -- -- 82
2018-04-26 01:00:00 17.2 5 Noroeste 10 Oeste 0 -- -- 82
2018-04-26 00:00:00 17.3 3 Noroeste 13 Oeste 0 -- -- 81
2018-04-25 23:00:00 17.6 9 Oeste 25 Noroeste 0 -- -- 80
2018-04-25 22:00:00 17.5 15 Noroeste 24 Noroeste 0 -- -- 78
2018-04-25 21:00:00 18.1 14 Oeste 22 Noroeste 0 -- -- 74
2018-04-25 20:00:00 19.5 6 Este 39 Este 0 -- -- 69
2018-04-25 19:00:00 19.7 15 Nordeste 41 Nordeste 0 -- -- 68
2018-04-25 18:00:00 19.9 17 Nordeste 35 Este 0 -- -- 67
2018-04-25 17:00:00 19.8 8 Nordeste 30 Noroeste 0 -- -- 72
2018-04-25 16:00:00 18.7 19 Nordeste 53 Nordeste 0 -- -- 75
2018-04-25 15:00:00 17.1 33 Norte 64 Norte 0 -- -- 78
2018-04-25 14:00:00 17 23 Norte 49 Norte 0 -- -- 77
2018-04-25 13:00:00 16.7 23 Norte 53 Norte 0.2 -- -- 75
2018-04-25 12:00:00 17.4 27 Norte 67 Norte 0 -- -- 72
2018-04-25 11:00:00 17.8 33 Nordeste 67 Nordeste 0 -- -- 70
2018-04-25 10:00:00 17.4 45 Nordeste 84 Nordeste 0 -- -- 71
2018-04-25 09:00:00 16.4 31 Nordeste 51 Este 0 -- -- 79
2018-04-25 08:00:00 15.9 10 Este 35 Nordeste 0.6 -- -- 81
2018-04-25 07:00:00 16.5 15 Este 24 Este 4 -- -- 79
2018-04-25 06:00:00 17.5 13 Oeste 22 Noroeste 0.4 -- -- 75
2018-04-25 05:00:00 17.8 10 Sur 31 Noroeste 0 -- -- 72
2018-04-25 04:00:00 20.8 21 Noroeste 45 Norte 0 -- -- 55
2018-04-25 03:00:00 20.9 9 Norte 55 Nordeste 0 -- -- 47
2018-04-25 02:00:00 20.8 36 Nordeste 75 Nordeste 0 -- -- 48
2018-04-25 01:00:00 21.2 50 Nordeste 79 Nordeste 0 -- -- 46
2018-04-25 00:00:00 20.8 47 Nordeste 72 Este 0 -- -- 49
2018-04-24 23:00:00 20.4 46 Este 80 Nordeste 0 -- -- 54
2018-04-24 22:00:00 20 40 Nordeste 63 Nordeste 0 -- -- 58
2018-04-24 21:00:00 19.9 30 Nordeste 87 Este 0 -- -- 61
2018-04-24 20:00:00 19.7 55 Nordeste 94 Nordeste 0 -- -- 62
2018-04-24 19:00:00 20.5 61 Nordeste 88 Nordeste 0 -- -- 60
2018-04-24 18:00:00 20.5 67 Nordeste 96 Nordeste 0 -- -- 60
2018-04-24 17:00:00 20.3 68 Este 94 Este 0 -- -- 61
2018-04-24 16:00:00 21.3 69 Nordeste 97 Este 0 -- -- 56
2018-04-24 15:00:00 22.2 54 Nordeste 93 Nordeste 0 -- -- 52
2018-04-24 14:00:00 22 62 Nordeste 102 Nordeste 0 -- -- 50
2018-04-24 13:00:00 21.6 60 Nordeste 95 Nordeste 0 -- -- 53
2018-04-24 12:00:00 22.3 36 Nordeste 80 Nordeste 0 -- -- 48
2018-04-24 11:00:00 22 29 Nordeste 79 Este 0 -- -- 48
2018-04-24 10:00:00 21.7 24 Este 66 Este 0 -- -- 46
2018-04-24 09:00:00 21 22 Nordeste 60 Nordeste 0 -- -- 46
2018-04-24 08:00:00 20.7 22 Nordeste 51 Nordeste 0 -- -- 42
2018-04-24 07:00:00 20.3 8 Nordeste 32 Nordeste 0 -- -- 40
2018-04-24 06:00:00 20.3 16 Este 30 Nordeste 0 -- -- 42
2018-04-24 05:00:00 22.2 5 Sudeste 72 Nordeste 0 -- -- 35
2018-04-24 04:00:00 24.2 43 Nordeste 71 Nordeste 0 -- -- 24
2018-04-24 03:00:00 23.6 33 Nordeste 71 Nordeste 0 -- -- 27
2018-04-24 02:00:00 23.8 35 Norte 81 Nordeste 0 -- -- 24
2018-04-24 01:00:00 23.1 32 Nordeste 84 Norte 0 -- -- 29
2018-04-24 00:00:00 22.2 38 Nordeste 73 Norte 0 -- -- 35